Latest Coastal Weather Observations for Aireys Inlet

IDV60701

Issued at 12:35 am EDT Wednesday 22 October 2014 (issued every 10 minutes, with the page automatically refreshed every 10 minutes)

About coastal observations | Map of coastal stations | Coastal observations for VIC | Marine services | Other Formats
Station Details ID: 090180 Name: AIREYS INLET Lat: -38.46 Lon: 144.09 Height: 95.0 m
Data from the previous 72 hours. | See also: Recent months at Aireys Inlet
Date/Time
EDT
Temp

°C
Wind Pressure Rain
since 9am
mm
Weather Cloud Vis
km
Sea
Height
m
Swell
Dir
 
Speed
knots
Gust
knots
hPa Trend Height
m
Period
s
Dir
22/12:30am 13.3 NNW 3 4 - - 0.0 - - - - - - -
22/12:00am 13.5 N 3 4 - - 0.0 - - - - - - -
 
Date/Time
EDT
Temp

°C
Wind Pressure Rain
since 9am
mm
Weather Cloud Vis
km
Sea
Height
m
Swell
Dir
 
Speed
knots
Gust
knots
hPa Trend Height
m
Period
s
Dir
21/11:30pm 14.1 N 2 3 - - 0.0 - - - - - - -
21/11:00pm 14.3 W 2 3 - - 0.0 - - - - - - -
21/10:30pm 14.2 W 3 4 - - 0.0 - - - - - - -
21/10:00pm 14.1 W 3 5 - - 0.0 - - - - - - -
21/09:30pm 14.2 WSW 3 4 - - 0.0 - - - - - - -
21/09:00pm 14.4 SW 3 4 - - 0.0 - - - - - - -
21/08:30pm 14.6 SW 4 5 - - 0.0 - - - - - - -
21/08:00pm 14.9 SW 3 4 - - 0.0 - - - - - - -
21/07:30pm 15.5 SW 4 6 - - 0.0 - - - - - - -
21/07:00pm 16.3 SW 4 5 - - 0.0 - - - - - - -
21/06:30pm 17.4 SSW 3 5 - - 0.0 - - - - - - -
21/06:00pm 18.2 SE 2 5 - - 0.0 - - - - - - -
21/05:30pm 17.8 SE 3 6 - - 0.0 - - - - - - -
21/05:00pm 17.9 SE 3 5 - - 0.0 - - - - - - -
21/04:30pm 18.4 SE 3 5 - - 0.0 - - - - - - -
21/04:00pm 18.2 ESE 4 7 - - 0.0 - - - - - - -
21/03:30pm 17.9 ESE 5 8 - - 0.0 - - - - - - -
21/03:00pm 17.6 ESE 5 8 - - 0.0 - - - - - - -
21/02:30pm 18.1 E 5 9 - - 0.0 - - - - - - -
21/02:00pm 17.4 ESE 5 8 - - 0.0 - - - - - - -
21/01:30pm 16.9 E 6 9 - - 0.0 - - - - - - -
21/01:00pm 17.3 E 6 11 - - 0.0 - - - - - - -
21/12:30pm 16.4 E 5 8 - - 0.0 - - - - - - -
21/12:00pm 15.8 E 5 10 - - 0.0 - - - - - - -
21/11:30am 15.3 E 6 10 - - 0.0 - - - - - - -
21/11:00am 15.3 E 6 10 - - 0.0 - - - - - - -
21/10:30am 14.9 E 6 9 - - 0.0 - - - - - - -
21/10:00am 14.2 E 5 8 - - 0.0 - - - - - - -
21/09:30am 14.3 ESE 3 6 - - 0.0 - - - - - - -
21/09:00am 13.5 E 4 7 - - 0.0 - - - - - - -
21/08:30am 12.7 E 4 8 - - 0.0 - - - - - - -
21/08:00am 12.6 E 4 7 - - 0.0 - - - - - - -
21/07:30am 11.8 E 3 5 - - 0.0 - - - - - - -
21/07:00am 11.3 E 4 8 - - 0.0 - - - - - - -
21/06:30am 11.5 E 5 9 - - 0.0 - - - - - - -
21/06:00am 11.4 E 7 14 - - 0.0 - - - - - - -
21/05:30am 11.3 ESE 7 12 - - 0.0 - - - - - - -
21/05:00am 11.3 E 8 13 - - 0.0 - - - - - - -
21/04:30am 11.4 ESE 8 16 - - 0.0 - - - - - - -
21/04:00am 11.3 ESE 8 13 - - 0.0 - - - - - - -
21/03:30am 11.4 ESE 9 15 - - 0.0 - - - - - - -
21/03:00am 11.5 ESE 10 17 - - 0.0 - - - - - - -
21/02:30am 11.7 ESE 9 16 - - 0.0 - - - - - - -
21/02:00am 11.8 ESE 9 16 - - 0.0 - - - - - - -
21/01:30am 11.9 E 9 15 - - 0.0 - - - - - - -
21/01:00am 11.8 E 10 18 - - 0.0 - - - - - - -
21/12:30am 11.9 E 10 18 - - 0.0 - - - - - - -
21/12:00am 11.9 E 8 16 - - 0.0 - - - - - - -
 
Date/Time
EDT
Temp

°C
Wind Pressure Rain
since 9am
mm
Weather Cloud Vis
km
Sea
Height
m
Swell
Dir
 
Speed
knots
Gust
knots
hPa Trend Height
m
Period
s
Dir
20/11:30pm 12.0 E 13 20 - - 0.0 - - - - - - -
20/11:00pm 12.3 E 12 23 - - 0.0 - - - - - - -
20/10:30pm 12.4 E 12 23 - - 0.0 - - - - - - -
20/10:00pm 12.6 E 14 24 - - 0.0 - - - - - - -
20/09:30pm 12.5 ESE 11 21 - - 0.0 - - - - - - -
20/09:00pm 12.6 ESE 10 19 - - 0.0 - - - - - - -
20/08:30pm 12.6 ESE 13 22 - - 0.0 - - - - - - -
20/08:00pm 12.6 ESE 12 20 - - 0.0 - - - - - - -
20/07:30pm 12.6 ESE 11 18 - - 0.0 - - - - - - -
20/07:00pm 12.6 SE 11 21 - - 0.0 - - - - - - -
20/06:30pm 13.4 SE 9 16 - - 0.0 - - - - - - -
20/06:00pm 13.6 SE 9 17 - - 0.0 - - - - - - -
20/05:30pm 13.8 SE 11 22 - - 0.0 - - - - - - -
20/05:00pm 14.1 SE 10 18 - - 0.0 - - - - - - -
20/04:30pm 14.9 SE 9 15 - - 0.0 - - - - - - -
20/04:00pm 14.9 SE 10 18 - - 0.0 - - - - - - -
20/03:30pm 15.2 SE 9 17 - - 0.0 - - - - - - -
20/03:00pm 14.7 SE 10 17 - - 0.0 - - - - - - -
20/02:30pm 14.9 SE 10 15 - - 0.0 - - - - - - -
20/02:00pm 15.4 SE 9 16 - - 0.0 - - - - - - -
20/01:30pm 14.8 SE 8 14 - - 0.0 - - - - - - -
20/01:00pm 14.2 SE 9 14 - - 0.0 - - - - - - -
20/12:30pm 14.0 SE 9 16 - - 0.0 - - - - - - -
20/12:00pm 14.0 SE 9 14 - - 0.0 - - - - - - -
20/11:30am 14.1 SE 8 14 - - 0.0 - - - - - - -
20/11:00am 13.6 SE 8 15 - - 0.0 - - - - - - -
20/10:30am 13.6 SE 9 17 - - 0.0 - - - - - - -
20/10:00am 13.4 SE 9 19 - - 0.0 - - - - - - -
20/09:30am 12.7 ESE 10 16 - - 0.0 - - - - - - -
20/09:00am 11.6 SE 10 19 - - 0.0 - - - - - - -
20/08:30am 11.7 SE 10 19 - - 0.0 - - - - - - -
20/08:00am 11.4 ESE 9 19 - - 0.0 - - - - - - -
20/07:30am 10.2 ESE 10 19 - - 0.0 - - - - - - -
20/07:00am 10.0 SE 11 18 - - 0.0 - - - - - - -
20/06:30am 9.9 SE 9 16 - - 0.0 - - - - - - -
20/06:00am 10.2 SE 10 17 - - 0.0 - - - - - - -
20/05:30am 10.6 SE 10 18 - - 0.0 - - - - - - -
20/05:00am 10.5 SE 9 16 - - 0.0 - - - - - - -
20/04:30am 10.8 SSE 10 18 - - 0.0 - - - - - - -
20/04:00am 10.6 SSE 8 13 - - 0.0 - - - - - - -
20/03:30am 11.0 SSE 9 15 - - 0.0 - - - - - - -
20/03:00am 10.7 SE 10 15 - - 0.0 - - - - - - -
20/02:30am 10.7 SSE 10 15 - - 0.0 - - - - - - -
20/02:00am 10.7 SSE 11 17 - - 0.0 - - - - - - -
20/01:30am 10.7 SSE 10 16 - - 0.0 - - - - - - -
20/01:00am 11.1 S 11 17 - - 0.0 - - - - - - -
20/12:30am 10.9 S 12 18 - - 0.0 - - - - - - -
20/12:00am 11.8 S 12 20 - - 0.0 - - - - - - -
 
Date/Time
EDT
Temp

°C
Wind Pressure Rain
since 9am
mm
Weather Cloud Vis
km
Sea
Height
m
Swell
Dir
 
Speed
knots
Gust
knots
hPa Trend Height
m
Period
s
Dir
19/11:30pm 11.7 S 12 19 - - 0.0 - - - - - - -
19/11:00pm 11.7 S 13 18 - - 0.0 - - - - - - -
19/10:30pm 11.4 S 13 20 - - 0.0 - - - - - - -
19/10:00pm 11.0 S 15 21 - - 0.0 - - - - - - -
19/09:30pm 11.2 SSW 16 22 - - 0.0 - - - - - - -
19/09:00pm 11.8 SSW 14 22 - - 0.0 - - - - - - -
19/08:30pm 11.9 S 16 22 - - 0.0 - - - - - - -
19/08:00pm 13.0 SSW 17 25 - - 0.0 - - - - - - -
19/07:30pm 13.3 SSW 15 26 - - 0.0 - - - - - - -
19/07:16pm 13.3 SSW 15 25 - - 0.0 - - - - - - -
19/07:00pm 13.3 SSW 13 20 - - 0.0 - - - - - - -
19/06:32pm 13.6 SW 15 25 - - 0.0 - - - - - - -
19/06:30pm 13.7 SW 16 25 - - 0.0 - - - - - - -
19/06:00pm 13.9 SSW 18 31 - - 0.0 - - - - - - -
19/05:55pm 13.9 SSW 18 31 - - 0.0 - - - - - - -
19/05:30pm 14.2 SSW 19 27 - - 0.0 - - - - - - -
19/05:00pm 14.5 SSW 18 29 - - 0.0 - - - - - - -
19/04:57pm 14.6 SSW 16 29 - - 0.0 - - - - - - -
19/04:30pm 15.1 SSW 14 23 - - 0.0 - - - - - - -
19/04:00pm 16.4 SSW 13 22 - - 0.0 - - - - - - -
19/03:30pm 18.0 S 10 15 - - 0.0 - - - - - - -
19/03:00pm 16.4 SSW 12 18 - - 0.0 - - - - - - -
19/02:30pm 16.2 SSW 13 18 - - 0.0 - - - - - - -
19/02:00pm 17.8 SSW 11 17 - - 0.0 - - - - - - -
19/01:30pm 16.2 SSW 12 17 - - 0.0 - - - - - - -
19/01:00pm 17.2 SSW 9 15 - - 0.0 - - - - - - -
19/12:30pm 15.6 SSW 8 13 - - 0.0 - - - - - - -
19/12:00pm 14.6 SW 11 16 - - 0.0 - - - - - - -
19/11:30am 15.2 SSW 8 14 - - 0.0 - - - - - - -
19/11:00am 18.2 SW 7 14 - - 0.0 - - - - - - -
19/10:30am 20.4 NW 12 20 - - 0.0 - - - - - - -
19/10:00am 19.5 NW 13 18 - - 0.0 - - - - - - -
19/09:30am 18.7 NW 12 17 - - 0.0 - - - - - - -
19/09:00am 18.5 WNW 8 14 - - 0.0 - - - - - - -
19/08:30am 18.6 WNW 11 17 - - 0.0 - - - - - - -
19/08:00am 18.5 NW 10 14 - - 0.0 - - - - - - -
19/07:30am 18.7 WNW 5 9 - - 0.0 - - - - - - -
19/07:00am 19.1 WNW 10 18 - - 0.0 - - - - - - -
19/06:30am 19.4 NW 13 22 - - 0.0 - - - - - - -
19/06:00am 19.2 NW 9 16 - - 0.0 - - - - - - -
19/05:30am 19.0 NW 9 16 - - 0.0 - - - - - - -
19/05:00am 18.8 NW 8 13 - - 0.0 - - - - - - -
19/04:30am 19.1 NW 4 8 - - 0.0 - - - - - - -
19/04:00am 19.3 NNW 5 9 - - 0.0 - - - - - - -
19/03:30am 19.6 NNW 9 17 - - 0.0 - - - - - - -
19/03:00am 19.9 NNW 12 18 - - 0.0 - - - - - - -
19/02:30am 19.7 NNW 11 15 - - 0.0 - - - - - - -
19/02:00am 18.8 N 11 15 - - 0.0 - - - - - - -
19/01:30am 17.7 NNE 10 14 - - 0.0 - - - - - - -
19/01:00am 17.6 NNE 9 13 - - 0.0 - - - - - - -

Other Formats:

Comma delimited format used in spreadsheet applications
http://www.bom.gov.au/fwo/IDV60701/IDV60701.94846.axf

JavaScript Object Notation format (JSON) in row-major order
http://www.bom.gov.au/fwo/IDV60701/IDV60701.94846.json